sensor_id;sensor_type;location;lat;lon;timestamp;pressure;altitude;pressure_sealevel;temperature;humidity
7754;BME280;3921;42.266;23.122;2022-08-01T00:25:48;95129.19;;;20.19;59.37
7754;BME280;3921;42.266;23.122;2022-08-01T00:28:50;95496.06;;;22.60;59.47
7754;BME280;3921;42.266;23.122;2022-08-01T00:39:44;95160.69;;;20.35;59.81
7754;BME280;3921;42.266;23.122;2022-08-01T00:42:22;95210.03;;;20.71;59.53
7754;BME280;3921;42.266;23.122;2022-08-01T00:45:18;95600.00;;;22.97;60.05
7754;BME280;3921;42.266;23.122;2022-08-01T00:47:54;95445.84;;;22.08;59.69
7754;BME280;3921;42.266;23.122;2022-08-01T00:50:48;95260.00;;;20.75;59.88
7754;BME280;3921;42.266;23.122;2022-08-01T00:53:36;95608.91;;;22.90;59.59
7754;BME280;3921;42.266;23.122;2022-08-01T00:56:19;95424.97;;;21.83;59.61
7754;BME280;3921;42.266;23.122;2022-08-01T00:59:28;95133.69;;;19.97;59.32
7754;BME280;3921;42.266;23.122;2022-08-01T01:02:17;95525.53;;;22.51;59.26
7754;BME280;3921;42.266;23.122;2022-08-01T01:43:22;95167.88;;;19.93;59.20
7754;BME280;3921;42.266;23.122;2022-08-01T02:40:37;95194.84;;;19.60;58.79
7754;BME280;3921;42.266;23.122;2022-08-01T04:48:20;95486.63;;;20.88;58.71
7754;BME280;3921;42.266;23.122;2022-08-01T04:51:03;95161.63;;;18.87;58.75
7754;BME280;3921;42.266;23.122;2022-08-01T04:53:32;95164.66;;;18.95;58.99
7754;BME280;3921;42.266;23.122;2022-08-01T04:55:59;95438.16;;;20.51;58.87
7754;BME280;3921;42.266;23.122;2022-08-01T04:58:27;95124.13;;;18.90;59.06
7754;BME280;3921;42.266;23.122;2022-08-01T05:00:57;95117.47;;;18.88;59.20
7754;BME280;3921;42.266;23.122;2022-08-01T05:03:27;95451.84;;;20.86;59.67
7754;BME280;3921;42.266;23.122;2022-08-01T05:05:58;95153.19;;;19.05;59.91
7754;BME280;3921;42.266;23.122;2022-08-01T05:08:44;95303.19;;;20.07;59.91
7754;BME280;3921;42.266;23.122;2022-08-01T05:11:16;95423.91;;;20.83;60.27
7754;BME280;3921;42.266;23.122;2022-08-01T05:13:43;95225.75;;;19.53;59.75
7754;BME280;3921;42.266;23.122;2022-08-01T05:16:10;95276.09;;;19.68;60.28
7754;BME280;3921;42.266;23.122;2022-08-01T05:18:38;95535.66;;;21.33;60.10
7754;BME280;3921;42.266;23.122;2022-08-01T05:21:05;95151.66;;;19.20;60.06
7754;BME280;3921;42.266;23.122;2022-08-01T05:23:37;95152.50;;;19.20;60.23
7754;BME280;3921;42.266;23.122;2022-08-01T05:26:06;95172.47;;;19.29;59.80
7754;BME280;3921;42.266;23.122;2022-08-01T05:49:19;95323.09;;;20.17;59.33
7754;BME280;3921;42.266;23.122;2022-08-01T05:51:49;95142.59;;;18.95;58.91
7754;BME280;3921;42.266;23.122;2022-08-01T05:54:21;95185.03;;;19.32;58.97
7754;BME280;3921;42.266;23.122;2022-08-01T06:00:24;95147.47;;;19.19;57.66
7754;BME280;3921;42.266;23.122;2022-08-01T07:01:34;95185.75;;;20.45;56.61
7754;BME280;3921;42.266;23.122;2022-08-01T07:07:15;95214.06;;;20.75;57.03
7754;BME280;3921;42.266;23.122;2022-08-01T07:10:25;95061.38;;;19.80;54.80
7754;BME280;3921;42.266;23.122;2022-08-01T07:13:11;95557.34;;;22.96;55.08
7754;BME280;3921;42.266;23.122;2022-08-01T07:24:19;95350.88;;;21.81;50.16
7754;BME280;3921;42.266;23.122;2022-08-01T07:27:15;95565.59;;;23.17;49.64
7754;BME280;3921;42.266;23.122;2022-08-01T07:30:12;95071.03;;;20.26;49.02
7754;BME280;3921;42.266;23.122;2022-08-01T07:32:48;95115.75;;;20.50;49.14
7754;BME280;3921;42.266;23.122;2022-08-01T07:38:24;95145.06;;;20.76;49.67
7754;BME280;3921;42.266;23.122;2022-08-01T07:41:10;95308.69;;;21.72;48.61
7754;BME280;3921;42.266;23.122;2022-08-01T07:43:41;95112.75;;;20.59;48.98
7754;BME280;3921;42.266;23.122;2022-08-01T07:46:14;95128.66;;;20.80;48.96
7754;BME280;3921;42.266;23.122;2022-08-01T07:49:02;95117.66;;;20.62;48.43
7754;BME280;3921;42.266;23.122;2022-08-01T07:51:51;95133.19;;;20.75;48.66
7754;BME280;3921;42.266;23.122;2022-08-01T07:54:34;95388.69;;;22.57;48.63
7754;BME280;3921;42.266;23.122;2022-08-01T07:57:09;95087.34;;;20.56;48.30
7754;BME280;3921;42.266;23.122;2022-08-01T07:59:55;95138.03;;;21.13;48.26
7754;BME280;3921;42.266;23.122;2022-08-01T08:05:09;95105.31;;;21.04;47.45
7754;BME280;3921;42.266;23.122;2022-08-01T08:07:38;95536.56;;;23.64;46.19
7754;BME280;3921;42.266;23.122;2022-08-01T08:10:22;95067.28;;;20.66;46.09
7754;BME280;3921;42.266;23.122;2022-08-01T08:12:57;95538.84;;;23.68;45.07
7754;BME280;3921;42.266;23.122;2022-08-01T08:15:42;95287.88;;;22.27;44.58
7754;BME280;3921;42.266;23.122;2022-08-01T08:18:11;95272.03;;;22.21;44.55
7754;BME280;3921;42.266;23.122;2022-08-01T08:20:55;95120.56;;;21.05;42.96
7754;BME280;3921;42.266;23.122;2022-08-01T08:23:39;95109.03;;;21.14;44.54
7754;BME280;3921;42.266;23.122;2022-08-01T08:26:26;95374.41;;;22.98;45.55
7754;BME280;3921;42.266;23.122;2022-08-01T08:29:15;95103.44;;;21.23;45.73
7754;BME280;3921;42.266;23.122;2022-08-01T08:31:48;95075.56;;;21.03;46.13
7754;BME280;3921;42.266;23.122;2022-08-01T08:34:20;95140.72;;;21.59;46.00
7754;BME280;3921;42.266;23.122;2022-08-01T08:36:48;95055.22;;;21.17;45.41
7754;BME280;3921;42.266;23.122;2022-08-01T08:39:18;95284.16;;;22.33;46.03
7754;BME280;3921;42.266;23.122;2022-08-01T08:42:22;95538.56;;;24.03;45.77
7754;BME280;3921;42.266;23.122;2022-08-01T08:45:13;95126.53;;;21.37;45.94
7754;BME280;3921;42.266;23.122;2022-08-01T08:47:43;95471.28;;;23.53;46.19
7754;BME280;3921;42.266;23.122;2022-08-01T08:50:17;95276.22;;;22.38;45.39
7754;BME280;3921;42.266;23.122;2022-08-01T08:55:20;95104.78;;;21.46;45.83
7754;BME280;3921;42.266;23.122;2022-08-01T08:57:56;95361.56;;;23.14;46.86
7754;BME280;3921;42.266;23.122;2022-08-01T09:00:44;95376.59;;;23.20;45.86
7754;BME280;3921;42.266;23.122;2022-08-01T09:08:23;95253.91;;;22.40;45.30
7754;BME280;3921;42.266;23.122;2022-08-01T09:10:51;95241.38;;;22.35;45.75
7754;BME280;3921;42.266;23.122;2022-08-01T09:13:20;95136.31;;;21.77;45.86
7754;BME280;3921;42.266;23.122;2022-08-01T09:15:52;95209.44;;;22.26;45.70
7754;BME280;3921;42.266;23.122;2022-08-01T09:18:28;95088.38;;;21.80;46.47
7754;BME280;3921;42.266;23.122;2022-08-01T09:21:13;95281.72;;;22.92;46.65
7754;BME280;3921;42.266;23.122;2022-08-01T09:23:44;95136.56;;;22.02;45.58
7754;BME280;3921;42.266;23.122;2022-08-01T09:26:17;95280.84;;;23.07;46.17
7754;BME280;3921;42.266;23.122;2022-08-01T09:28:48;95222.19;;;22.87;46.74
7754;BME280;3921;42.266;23.122;2022-08-01T09:31:18;95400.59;;;24.06;46.66
7754;BME280;3921;42.266;23.122;2022-08-01T09:33:51;95170.88;;;22.74;46.79
7754;BME280;3921;42.266;23.122;2022-08-01T09:36:21;95105.91;;;22.32;46.56
7754;BME280;3921;42.266;23.122;2022-08-01T09:38:49;95059.81;;;22.18;46.12
7754;BME280;3921;42.266;23.122;2022-08-01T09:41:17;95490.13;;;24.82;46.24
7754;BME280;3921;42.266;23.122;2022-08-01T09:43:49;95116.72;;;22.37;47.05
7754;BME280;3921;42.266;23.122;2022-08-01T09:46:25;95315.22;;;23.76;47.89
7754;BME280;3921;42.266;23.122;2022-08-01T09:49:06;95482.44;;;24.82;47.32
7754;BME280;3921;42.266;23.122;2022-08-01T09:51:49;95053.41;;;22.25;46.15
7754;BME280;3921;42.266;23.122;2022-08-01T09:54:56;95045.25;;;22.04;45.41
7754;BME280;3921;42.266;23.122;2022-08-01T09:58:23;95102.53;;;22.46;45.58
7754;BME280;3921;42.266;23.122;2022-08-01T10:01:49;95068.69;;;22.26;46.33
7754;BME280;3921;42.266;23.122;2022-08-01T10:07:57;95125.31;;;22.65;46.44
7754;BME280;3921;42.266;23.122;2022-08-01T10:10:25;95223.25;;;23.27;47.37
7754;BME280;3921;42.266;23.122;2022-08-01T10:12:55;95137.06;;;22.97;47.50
7754;BME280;3921;42.266;23.122;2022-08-01T10:15:27;95056.00;;;22.68;45.16
7754;BME280;3921;42.266;23.122;2022-08-01T10:26:41;95075.47;;;22.70;44.51
7754;BME280;3921;42.266;23.122;2022-08-01T10:29:28;95042.75;;;22.61;44.61
7754;BME280;3921;42.266;23.122;2022-08-01T10:31:59;95047.41;;;22.69;44.86
7754;BME280;3921;42.266;23.122;2022-08-01T10:34:36;95079.41;;;23.04;44.03
7754;BME280;3921;42.266;23.122;2022-08-01T10:37:34;95176.44;;;23.66;43.59
7754;BME280;3921;42.266;23.122;2022-08-01T10:40:46;95009.63;;;22.72;44.22
7754;BME280;3921;42.266;23.122;2022-08-01T10:43:49;95068.38;;;23.17;44.33
7754;BME280;3921;42.266;23.122;2022-08-01T10:49:51;95159.34;;;23.79;45.78
7754;BME280;3921;42.266;23.122;2022-08-01T11:39:13;95398.44;;;27.46;38.16
7754;BME280;3921;42.266;23.122;2022-08-01T11:41:42;95021.78;;;25.17;38.22
7754;BME280;3921;42.266;23.122;2022-08-01T11:44:11;95027.34;;;25.11;37.50
7754;BME280;3921;42.266;23.122;2022-08-01T11:46:47;95006.31;;;24.93;37.64
7754;BME280;3921;42.266;23.122;2022-08-01T11:49:46;95259.50;;;26.36;37.54
7754;BME280;3921;42.266;23.122;2022-08-01T11:52:18;95178.00;;;26.00;38.73
7754;BME280;3921;42.266;23.122;2022-08-01T11:54:54;95064.34;;;25.45;37.44
7754;BME280;3921;42.266;23.122;2022-08-01T11:57:23;95136.25;;;26.07;37.19
7754;BME280;3921;42.266;23.122;2022-08-01T11:59:52;95072.28;;;25.66;36.79
7754;BME280;3921;42.266;23.122;2022-08-01T12:02:32;95041.16;;;25.34;36.87
7754;BME280;3921;42.266;23.122;2022-08-01T12:05:02;95012.09;;;25.21;37.49
7754;BME280;3921;42.266;23.122;2022-08-01T12:07:32;95097.28;;;25.53;38.78
7754;BME280;3921;42.266;23.122;2022-08-01T12:10:03;95026.66;;;25.09;38.68
7754;BME280;3921;42.266;23.122;2022-08-01T12:12:43;94993.34;;;25.07;37.80
7754;BME280;3921;42.266;23.122;2022-08-01T12:15:12;95038.38;;;25.37;38.22
7754;BME280;3921;42.266;23.122;2022-08-01T12:17:41;95045.41;;;25.46;38.24
7754;BME280;3921;42.266;23.122;2022-08-01T12:22:44;95068.69;;;25.92;37.35
7754;BME280;3921;42.266;23.122;2022-08-01T12:25:14;95043.41;;;25.98;35.63
7754;BME280;3921;42.266;23.122;2022-08-01T12:27:47;95037.19;;;25.89;36.53
7754;BME280;3921;42.266;23.122;2022-08-01T12:30:16;95069.25;;;26.31;36.70
7754;BME280;3921;42.266;23.122;2022-08-01T12:32:46;95029.19;;;26.16;35.65
7754;BME280;3921;42.266;23.122;2022-08-01T12:35:16;95017.03;;;26.29;36.68
7754;BME280;3921;42.266;23.122;2022-08-01T12:40:55;95109.25;;;26.82;37.87
7754;BME280;3921;42.266;23.122;2022-08-01T12:43:27;95097.19;;;26.82;36.19
7754;BME280;3921;42.266;23.122;2022-08-01T12:46:00;94992.91;;;26.30;36.38
7754;BME280;3921;42.266;23.122;2022-08-01T12:48:30;95002.91;;;26.46;36.51
7754;BME280;3921;42.266;23.122;2022-08-01T12:50:59;94997.72;;;26.35;36.96
7754;BME280;3921;42.266;23.122;2022-08-01T12:53:36;95131.31;;;26.97;36.34
7754;BME280;3921;42.266;23.122;2022-08-01T12:56:36;94997.84;;;26.22;36.56
7754;BME280;3921;42.266;23.122;2022-08-01T12:59:21;94947.97;;;26.12;34.87
7754;BME280;3921;42.266;23.122;2022-08-01T13:01:52;94938.84;;;26.19;33.78
7754;BME280;3921;42.266;23.122;2022-08-01T13:04:28;95346.31;;;28.75;35.54
7754;BME280;3921;42.266;23.122;2022-08-01T13:12:50;94962.16;;;26.51;36.75
7754;BME280;3921;42.266;23.122;2022-08-01T13:16:02;94916.00;;;26.37;36.42
7754;BME280;3921;42.266;23.122;2022-08-01T13:18:39;95101.13;;;27.53;37.15
7754;BME280;3921;42.266;23.122;2022-08-01T13:24:03;94973.00;;;26.88;35.86
7754;BME280;3921;42.266;23.122;2022-08-01T14:07:43;94922.97;;;26.91;37.57
7754;BME280;3921;42.266;23.122;2022-08-01T14:10:18;94962.47;;;27.23;37.01
7754;BME280;3921;42.266;23.122;2022-08-01T14:12:47;95030.59;;;27.64;37.64
7754;BME280;3921;42.266;23.122;2022-08-01T14:15:15;95342.91;;;29.70;37.44
7754;BME280;3921;42.266;23.122;2022-08-01T14:17:54;95022.16;;;27.62;34.29
7754;BME280;3921;42.266;23.122;2022-08-01T14:20:26;94964.97;;;27.25;36.38
7754;BME280;3921;42.266;23.122;2022-08-01T14:28:32;95128.97;;;28.14;35.63
7754;BME280;3921;42.266;23.122;2022-08-01T14:31:00;94957.13;;;27.15;36.25
7754;BME280;3921;42.266;23.122;2022-08-01T14:33:27;94981.94;;;27.27;36.52
7754;BME280;3921;42.266;23.122;2022-08-01T14:35:56;94941.69;;;26.93;35.99
7754;BME280;3921;42.266;23.122;2022-08-01T14:38:23;95320.88;;;29.33;36.19
7754;BME280;3921;42.266;23.122;2022-08-01T14:40:50;95256.44;;;28.89;35.68
7754;BME280;3921;42.266;23.122;2022-08-01T14:58:58;94966.00;;;26.79;36.40
7754;BME280;3921;42.266;23.122;2022-08-01T15:25:31;94930.72;;;26.80;36.07
7754;BME280;3921;42.266;23.122;2022-08-01T15:27:58;94964.06;;;27.04;36.49
7754;BME280;3921;42.266;23.122;2022-08-01T15:30:29;95124.06;;;28.11;35.77
7754;BME280;3921;42.266;23.122;2022-08-01T15:32:56;94955.50;;;27.03;34.87
7754;BME280;3921;42.266;23.122;2022-08-01T15:35:26;95126.53;;;28.13;36.82
7754;BME280;3921;42.266;23.122;2022-08-01T15:37:57;95110.72;;;28.06;36.40
7754;BME280;3921;42.266;23.122;2022-08-01T15:40:24;94925.66;;;26.78;34.31
7754;BME280;3921;42.266;23.122;2022-08-01T15:43:03;95346.81;;;29.64;35.02
7754;BME280;3921;42.266;23.122;2022-08-01T15:46:24;94940.25;;;27.00;36.40
7754;BME280;3921;42.266;23.122;2022-08-01T15:57:48;94948.69;;;27.24;34.88
7754;BME280;3921;42.266;23.122;2022-08-01T16:40:16;94923.72;;;26.03;38.64
7754;BME280;3921;42.266;23.122;2022-08-01T16:55:51;95067.47;;;26.67;36.42
7754;BME280;3921;42.266;23.122;2022-08-01T17:01:04;95022.28;;;26.16;36.07
7754;BME280;3921;42.266;23.122;2022-08-01T17:03:59;94891.78;;;25.37;37.86
7754;BME280;3921;42.266;23.122;2022-08-01T17:06:26;94975.53;;;25.76;39.07
7754;BME280;3921;42.266;23.122;2022-08-01T17:08:54;95145.66;;;26.66;38.86
7754;BME280;3921;42.266;23.122;2022-08-01T17:14:33;94968.69;;;25.40;38.61
7754;BME280;3921;42.266;23.122;2022-08-01T17:17:04;94972.25;;;25.50;39.10
7754;BME280;3921;42.266;23.122;2022-08-01T21:30:34;95463.63;;;23.38;49.12
7754;BME280;3921;42.266;23.122;2022-08-01T23:14:36;95497.88;;;22.58;51.38
